Bowmanville, Canada
Current Conditions -  °F | °C
As of 2:00 PM on Sunday 21 Dec 2014 (Local Time) from CYOO Reporting Station
Overcast Overcast  
Wind Chill: 29°   Ceiling: 2700
Heat Index: 34°   Visibility: 9mi
Dew Point: 25°   Wind: 6mph
Humidity: 70%   Direction: 190°S
Pressure: 30.27"   Gusts: NA
Location:  43.91°N, 78.69°W
Report Text: CYOO 211900Z AUTO 19005KT 160V250 9SM OVC027 01/M04 A3027 RMK SLP257
Loading
Personal Weather Stations






























Interactive Weather Map New forecast layout! Learn more

10-Day Weather Forecast

Advertisements
Track Severe Weather on mobile